Time;durP1;ratioP1;P1;durP2;ratioP2;P2;SDS_P1;SDS_P2;PMS_P1;PMS_P2;Temp;Humidity;BMP_temperature;BMP_pressure;BME280_temperature;BME280_humidity;BME280_pressure;Samples;Min_cycle;Max_cycle;Signal;HPM_P1;HPM_P2
2022/03/20 00:00:44;;;;;;;26.05;12.38;;;;;;;3.55;76.39;102918.09;5255010;28;20024;-79
2022/03/20 00:03:15;;;;;;;24.60;12.63;;;;;;;3.48;77.13;102913.56;5232517;28;20039;-77
2022/03/20 00:05:47;;;;;;;27.08;12.77;;;;;;;3.52;76.45;102918.88;5249130;28;20054;-77
2022/03/20 00:08:17;;;;;;;20.50;11.38;;;;;;;3.46;76.56;102910.03;5255156;28;20133;-78
2022/03/20 00:10:49;;;;;;;21.70;11.88;;;;;;;3.42;76.55;102916.84;5253639;28;20062;-78
2022/03/20 00:13:22;;;;;;;26.20;12.85;;;;;;;3.42;77.07;102901.34;5229711;28;20048;-78
2022/03/20 00:15:54;;;;;;;22.10;11.48;;;;;;;3.40;76.79;102905.56;5255599;28;20031;-77
2022/03/20 00:18:26;;;;;;;23.50;12.02;;;;;;;3.32;76.80;102888.97;5238405;28;20435;-78
2022/03/20 00:20:59;;;;;;;24.50;12.23;;;;;;;3.31;77.06;102897.53;5253633;28;20020;-77
2022/03/20 00:23:29;;;;;;;24.42;12.57;;;;;;;3.23;76.99;102892.97;5249192;28;20485;-77
2022/03/20 00:26:00;;;;;;;23.05;12.10;;;;;;;3.22;77.07;102891.22;5250824;28;20046;-78
2022/03/20 00:28:30;;;;;;;26.27;13.00;;;;;;;3.32;75.60;102888.97;5249597;28;20024;-78
2022/03/20 00:31:01;;;;;;;24.17;12.25;;;;;;;3.31;75.85;102896.66;5250170;28;20466;-77
2022/03/20 00:33:31;;;;;;;21.65;12.27;;;;;;;3.29;75.77;102900.91;5241738;28;20124;-79
2022/03/20 00:36:01;;;;;;;23.77;12.80;;;;;;;3.13;77.00;102883.16;5249184;28;20038;-79
2022/03/20 00:38:32;;;;;;;25.02;12.85;;;;;;;3.21;75.15;102887.75;5251284;28;20042;-79
2022/03/20 00:41:02;;;;;;;25.88;12.50;;;;;;;3.18;75.29;102881.63;5250911;28;20482;-78
2022/03/20 00:43:32;;;;;;;27.45;12.77;;;;;;;3.20;74.90;102877.38;5252140;28;20393;-79
2022/03/20 00:46:03;;;;;;;23.17;11.75;;;;;;;3.16;75.19;102878.13;5249343;28;20020;-79
2022/03/20 00:48:33;;;;;;;23.33;11.95;;;;;;;3.18;74.71;102881.63;5241473;28;20077;-79
2022/03/20 00:51:06;;;;;;;25.38;12.65;;;;;;;3.21;73.59;102867.06;5252706;28;20150;-79
2022/03/20 00:53:36;;;;;;;24.15;11.30;;;;;;;3.21;72.95;102872.25;5237690;28;20571;-78
2022/03/20 00:56:07;;;;;;;27.70;12.57;;;;;;;3.17;72.83;102862.66;5252163;28;20064;-80
2022/03/20 00:58:37;;;;;;;25.05;11.93;;;;;;;3.12;73.39;102876.25;5255406;28;20027;-78
2022/03/20 01:01:10;;;;;;;26.65;12.25;;;;;;;3.00;74.30;102861.25;5251135;28;20032;-77
2022/03/20 01:03:42;;;;;;;22.85;12.43;;;;;;;3.04;73.48;102862.22;5230022;28;20429;-79
2022/03/20 01:06:12;;;;;;;22.88;11.48;;;;;;;3.12;72.82;102869.38;5248555;28;20084;-79
2022/03/20 01:08:43;;;;;;;27.38;12.38;;;;;;;3.03;72.75;102863.91;5249306;28;20428;-78
2022/03/20 01:11:13;;;;;;;25.70;11.40;;;;;;;3.03;72.81;102860.47;5245738;28;20529;-79
2022/03/20 01:13:44;;;;;;;24.25;12.07;;;;;;;3.13;71.65;102862.50;5254183;28;20246;-79
2022/03/20 01:16:14;;;;;;;24.08;11.85;;;;;;;3.07;72.44;102854.56;5232245;28;20441;-79
2022/03/20 01:18:44;;;;;;;22.88;11.75;;;;;;;3.11;70.91;102852.13;5254099;28;20067;-79
2022/03/20 01:21:15;;;;;;;25.95;11.80;;;;;;;3.18;70.86;102850.63;5250991;28;20020;-78
2022/03/20 01:23:45;;;;;;;25.92;11.23;;;;;;;3.11;70.93;102852.13;5253848;28;20038;-78
2022/03/20 01:26:15;;;;;;;28.95;12.30;;;;;;;3.07;70.61;102857.16;5252026;28;20210;-78
2022/03/20 01:28:45;;;;;;;23.20;12.23;;;;;;;2.97;71.55;102852.50;5252507;28;20111;-78
2022/03/20 01:31:16;;;;;;;26.83;12.00;;;;;;;3.02;70.18;102841.50;5252243;28;20411;-77
2022/03/20 01:33:46;;;;;;;24.90;11.73;;;;;;;3.13;69.12;102847.00;5242687;28;20032;-78
2022/03/20 01:36:17;;;;;;;26.30;11.38;;;;;;;2.96;70.39;102838.75;5235733;28;20478;-78
2022/03/20 01:38:47;;;;;;;27.80;12.73;;;;;;;3.02;69.45;102835.47;5245109;28;20036;-78
2022/03/20 01:41:18;;;;;;;25.25;11.48;;;;;;;2.96;69.79;102832.69;5249848;28;20413;-79
2022/03/20 01:43:56;;;;;;;23.95;11.38;;;;;;;2.95;68.75;102838.69;5253021;28;20032;-79
2022/03/20 01:46:27;;;;;;;21.92;11.30;;;;;;;2.97;68.76;102837.03;5250773;28;20028;-79
2022/03/20 01:48:57;;;;;;;28.05;12.38;;;;;;;2.89;69.34;102836.78;5253609;28;20030;-80
2022/03/20 01:54:16;;;;;;;20.33;10.93;;;;;;;2.82;69.10;102816.78;5250348;28;20435;-79
2022/03/20 01:56:51;;;;;;;22.85;11.20;;;;;;;2.98;67.53;102810.38;5252206;28;20016;-78
2022/03/20 01:59:21;;;;;;;27.38;11.57;;;;;;;3.03;66.83;102808.81;5252912;28;20405;-78
2022/03/20 02:01:51;;;;;;;21.35;11.20;;;;;;;3.07;66.36;102803.81;5251976;28;20016;-79
2022/03/20 02:04:21;;;;;;;20.70;10.93;;;;;;;3.07;66.26;102808.06;5242307;28;20055;-78
2022/03/20 02:06:52;;;;;;;23.52;11.55;;;;;;;3.06;65.46;102796.84;5248947;28;20032;-78
2022/03/20 02:09:22;;;;;;;23.00;10.98;;;;;;;3.14;65.28;102797.97;5243884;28;20073;-78
2022/03/20 02:11:54;;;;;;;22.73;11.18;;;;;;;3.12;65.07;102796.16;5249958;28;20024;-79
2022/03/20 02:14:26;;;;;;;22.30;10.70;;;;;;;3.19;64.94;102795.53;5251342;28;20040;-79
2022/03/20 02:16:56;;;;;;;22.20;11.05;;;;;;;3.10;65.27;102787.50;5253691;28;20051;-79
2022/03/20 02:19:27;;;;;;;23.98;10.75;;;;;;;3.14;64.59;102785.06;5251274;28;20055;-78
2022/03/20 02:21:57;;;;;;;22.33;11.13;;;;;;;3.07;65.12;102785.72;5253050;28;20499;-78
2022/03/20 02:24:40;;;;;;;23.10;10.77;;;;;;;3.10;64.99;102772.00;5251598;28;20108;-79
2022/03/20 02:27:24;;;;;;;19.85;10.02;;;;;;;3.14;63.79;102773.84;5248632;28;20025;-78
2022/03/20 02:29:57;;;;;;;24.17;10.43;;;;;;;3.11;64.07;102769.47;5250908;28;20330;-78
2022/03/20 02:32:29;;;;;;;19.98;10.73;;;;;;;3.06;64.59;102760.69;5248138;28;20061;-78
2022/03/20 02:35:04;;;;;;;21.67;10.57;;;;;;;2.95;64.39;102767.28;5245768;28;20032;-79
2022/03/20 02:37:35;;;;;;;24.67;11.20;;;;;;;2.92;65.39;102764.59;5243091;28;20024;-78
2022/03/20 02:40:06;;;;;;;23.63;11.43;;;;;;;2.94;64.97;102759.47;5246536;28;20040;-78
2022/03/20 02:42:38;;;;;;;19.48;9.93;;;;;;;2.98;64.45;102759.59;5235556;28;20028;-78
2022/03/20 02:45:11;;;;;;;24.63;11.15;;;;;;;3.01;64.38;102757.09;5251171;28;20582;-78
2022/03/20 02:47:43;;;;;;;20.25;10.00;;;;;;;2.90;65.08;102750.78;5286617;22;20055;-77
2022/03/20 02:50:19;;;;;;;23.67;10.77;;;;;;;2.92;64.50;102755.97;5270521;28;20043;-77
2022/03/20 02:52:54;;;;;;;21.40;10.90;;;;;;;2.94;64.66;102751.72;5271011;28;20308;-77
2022/03/20 02:55:29;;;;;;;21.45;10.25;;;;;;;2.95;63.67;102745.72;5273019;28;20028;-77
2022/03/20 02:58:02;;;;;;;22.55;10.40;;;;;;;3.01;63.66;102743.34;5258278;28;20028;-77
2022/03/20 03:00:33;;;;;;;22.60;10.13;;;;;;;2.99;63.71;102742.41;5256029;28;20477;-77
2022/03/20 03:03:06;;;;;;;20.83;10.43;;;;;;;3.10;63.02;102747.06;5254802;28;20031;-77
2022/03/20 03:05:37;;;;;;;24.88;10.95;;;;;;;2.98;63.61;102743.22;5253950;28;20149;-77
2022/03/20 03:10:57;;;;;;;26.73;11.73;;;;;;;2.85;64.20;102738.53;5251150;28;20043;-77
2022/03/20 03:13:38;;;;;;;23.48;10.98;;;;;;;2.89;63.82;102730.91;5258745;28;20544;-77
2022/03/20 03:16:11;;;;;;;21.25;10.60;;;;;;;2.99;63.49;102732.94;5253652;28;20108;-77
2022/03/20 03:18:45;;;;;;;19.23;10.63;;;;;;;3.07;62.66;102730.59;5255750;28;20049;-77
2022/03/20 03:21:17;;;;;;;20.98;10.10;;;;;;;3.11;62.76;102724.69;5254126;28;20389;-77
2022/03/20 03:23:47;;;;;;;21.85;10.55;;;;;;;3.08;63.39;102719.44;5254705;28;20094;-77
2022/03/20 03:26:17;;;;;;;23.05;10.60;;;;;;;3.03;62.93;102723.59;5254221;28;20516;-77
2022/03/20 03:28:47;;;;;;;21.15;10.35;;;;;;;3.04;62.67;102725.34;5254892;28;20055;-77
2022/03/20 03:31:18;;;;;;;21.33;10.75;;;;;;;3.02;62.55;102725.28;5254316;28;20024;-77
2022/03/20 03:36:37;;;;;;;18.20;9.40;;;;;;;2.87;63.62;102722.25;5253862;28;20376;-77
2022/03/20 03:39:09;;;;;;;21.17;10.15;;;;;;;2.84;64.09;102716.16;5250038;28;20024;-77
2022/03/20 03:41:40;;;;;;;20.83;10.10;;;;;;;2.89;62.65;102710.25;5253677;28;20054;-77
2022/03/20 03:44:10;;;;;;;23.25;10.35;;;;;;;2.98;62.24;102709.66;5235431;28;20021;-77
2022/03/20 03:46:40;;;;;;;24.10;10.43;;;;;;;3.14;61.30;102707.56;5254980;28;20023;-77
2022/03/20 03:49:11;;;;;;;18.45;9.45;;;;;;;3.22;60.70;102700.03;5253314;28;20031;-77
2022/03/20 03:51:42;;;;;;;20.88;10.50;;;;;;;3.18;61.26;102700.78;5255052;28;20028;-77
2022/03/20 03:54:12;;;;;;;22.63;10.88;;;;;;;3.21;60.52;102693.97;5252741;28;20446;-77
2022/03/20 03:56:42;;;;;;;26.23;11.20;;;;;;;3.27;60.87;102690.69;5254385;28;20476;-77
2022/03/20 03:59:12;;;;;;;22.17;10.07;;;;;;;3.24;60.82;102693.19;5253283;28;20375;-77
2022/03/20 04:01:43;;;;;;;18.00;10.00;;;;;;;3.23;60.84;102686.28;5254463;28;20023;-77
2022/03/20 04:04:14;;;;;;;20.63;9.90;;;;;;;3.22;60.71;102694.88;5257788;28;20481;-77
2022/03/20 04:06:44;;;;;;;21.38;9.98;;;;;;;3.26;61.21;102681.19;5256923;28;20043;-77
2022/03/20 04:09:14;;;;;;;21.17;9.82;;;;;;;3.24;60.51;102678.59;5249791;28;20031;-77
2022/03/20 04:11:44;;;;;;;23.13;11.70;;;;;;;3.22;60.70;102676.78;5251531;28;20020;-77
2022/03/20 04:14:15;;;;;;;22.23;10.52;;;;;;;3.35;59.81;102676.28;5253622;28;20433;-77
2022/03/20 04:16:45;;;;;;;21.10;9.77;;;;;;;3.37;60.05;102684.97;5253885;28;20032;-77
2022/03/20 04:19:16;;;;;;;22.38;10.20;;;;;;;3.32;60.04;102682.25;5253580;28;20113;-77
2022/03/20 04:21:48;;;;;;;23.27;10.27;;;;;;;3.29;60.58;102681.28;5253600;28;20020;-77
2022/03/20 04:24:18;;;;;;;26.02;10.77;;;;;;;3.30;59.85;102672.69;5253461;28;20484;-77
2022/03/20 04:26:48;;;;;;;21.77;9.43;;;;;;;3.31;59.62;102672.75;5253668;28;20035;-77
2022/03/20 04:29:20;;;;;;;24.33;11.02;;;;;;;3.28;59.69;102685.59;5253941;28;20094;-77
2022/03/20 04:31:54;;;;;;;22.90;10.43;;;;;;;3.19;60.36;102679.28;5252531;28;20038;-77
2022/03/20 04:34:26;;;;;;;19.08;10.07;;;;;;;3.28;59.84;102675.25;5258681;28;20030;-77
2022/03/20 04:36:56;;;;;;;23.67;10.57;;;;;;;3.30;59.79;102672.69;5254776;28;20032;-77
2022/03/20 04:39:27;;;;;;;22.25;10.60;;;;;;;3.28;59.52;102674.34;5247784;28;20515;-77
2022/03/20 04:41:57;;;;;;;23.20;10.38;;;;;;;3.23;60.15;102678.53;5252357;28;20028;-77
2022/03/20 04:44:28;;;;;;;21.60;10.60;;;;;;;3.15;60.39;102677.44;5255124;28;20028;-77
2022/03/20 04:46:58;;;;;;;23.27;10.68;;;;;;;3.09;60.72;102680.75;5251540;28;20032;-77
2022/03/20 05:00:44;;;;;;;25.98;11.00;;;;;;;2.94;60.80;102677.72;5252564;28;20074;-77
2022/03/20 05:03:14;;;;;;;23.88;10.52;;;;;;;2.86;61.51;102670.59;5255955;28;20032;-77
2022/03/20 05:05:46;;;;;;;24.85;11.00;;;;;;;2.79;62.37;102673.78;5257723;28;20028;-77
2022/03/20 05:08:16;;;;;;;22.77;10.68;;;;;;;2.65;62.67;102675.97;5234043;28;20115;-77
2022/03/20 05:13:36;;;;;;;24.10;10.95;;;;;;;2.48;64.24;102673.75;5254610;28;20035;-77
2022/03/20 05:16:08;;;;;;;24.00;11.15;;;;;;;2.55;63.14;102676.56;5254150;28;20027;-77
2022/03/20 05:18:38;;;;;;;22.23;10.85;;;;;;;2.42;63.94;102676.09;5251150;28;20032;-77
2022/03/20 05:21:10;;;;;;;25.08;11.38;;;;;;;2.44;64.27;102677.03;5253299;28;20036;-77
2022/03/20 05:23:40;;;;;;;27.92;10.95;;;;;;;2.49;64.17;102681.50;5256801;28;20028;-77
2022/03/20 05:26:11;;;;;;;19.30;10.23;;;;;;;2.60;63.22;102679.25;5256678;28;20020;-77
2022/03/20 05:28:41;;;;;;;25.05;11.30;;;;;;;2.55;63.24;102680.81;5251011;28;20024;-77
2022/03/20 05:31:11;;;;;;;25.40;10.68;;;;;;;2.45;63.92;102676.19;5252861;28;20097;-77
2022/03/20 05:33:43;;;;;;;23.40;11.25;;;;;;;2.59;63.15;102685.25;5256044;28;20024;-77
2022/03/20 05:36:14;;;;;;;23.23;11.10;;;;;;;2.54;64.24;102692.84;5255194;28;20426;-77
2022/03/20 05:38:44;;;;;;;23.42;11.43;;;;;;;2.55;63.48;102680.81;5253019;28;20036;-77
2022/03/20 05:44:03;;;;;;;23.25;10.75;;;;;;;2.57;63.80;102690.38;5250277;28;20085;-77
2022/03/20 05:46:34;;;;;;;23.20;10.82;;;;;;;2.63;63.38;102685.38;5254185;28;20024;-77
2022/03/20 05:49:05;;;;;;;23.52;11.52;;;;;;;2.64;63.67;102691.41;5250249;28;20024;-77
2022/03/20 05:51:37;;;;;;;22.48;11.00;;;;;;;2.61;64.51;102688.75;5252493;28;20032;-77
2022/03/20 05:54:07;;;;;;;24.10;11.65;;;;;;;2.53;64.53;102692.81;5255018;28;20112;-77
2022/03/20 05:59:27;;;;;;;27.17;12.05;;;;;;;2.62;64.41;102693.97;5251161;28;20537;-77
2022/03/20 06:01:57;;;;;;;23.67;11.65;;;;;;;2.65;64.89;102693.19;5252546;28;20337;-77
2022/03/20 06:04:28;;;;;;;22.80;11.10;;;;;;;2.74;63.77;102693.44;5257028;28;20039;-77
2022/03/20 06:06:58;;;;;;;22.98;10.65;;;;;;;2.78;63.44;102695.28;5252325;28;20029;-77
2022/03/20 06:09:28;;;;;;;24.75;11.10;;;;;;;2.85;63.60;102692.06;5253417;28;20384;-77
2022/03/20 06:11:59;;;;;;;28.17;12.00;;;;;;;2.88;63.75;102695.59;5253337;28;20028;-77
2022/03/20 06:14:29;;;;;;;22.80;10.98;;;;;;;2.96;63.96;102688.97;5250549;28;20031;-77
2022/03/20 06:17:00;;;;;;;26.80;11.73;;;;;;;2.94;63.09;102689.75;5253304;28;20024;-77
2022/03/20 06:19:30;;;;;;;24.00;11.90;;;;;;;2.95;63.67;102687.22;5231822;28;20116;-77
2022/03/20 06:22:00;;;;;;;23.45;11.45;;;;;;;3.00;64.14;102688.22;5252439;28;20036;-77
2022/03/20 06:24:31;;;;;;;24.48;11.50;;;;;;;2.99;64.15;102680.44;5257856;28;20059;-77
2022/03/20 06:27:03;;;;;;;21.95;10.90;;;;;;;3.08;64.20;102681.56;5256003;28;20075;-77
2022/03/20 06:29:33;;;;;;;24.85;11.50;;;;;;;3.05;64.25;102680.59;5248773;28;20501;-77
2022/03/20 06:32:04;;;;;;;25.27;12.32;;;;;;;3.14;64.24;102686.00;5253405;28;20326;-77
2022/03/20 06:34:34;;;;;;;24.70;11.25;;;;;;;3.16;64.89;102686.97;5258526;28;20469;-77
2022/03/20 06:37:05;;;;;;;27.35;11.77;;;;;;;3.13;64.86;102686.84;5240146;28;20196;-77
2022/03/20 06:39:36;;;;;;;26.85;11.73;;;;;;;3.19;63.84;102677.56;5259427;28;20077;-77
2022/03/20 06:42:07;;;;;;;24.40;11.73;;;;;;;3.25;64.70;102685.50;5238407;28;20478;-77
2022/03/20 06:44:37;;;;;;;25.13;12.27;;;;;;;3.23;64.54;102670.78;5259815;28;20066;-76
2022/03/20 06:47:08;;;;;;;30.80;12.30;;;;;;;3.24;64.33;102682.88;5256048;28;20020;-77
2022/03/20 06:49:38;;;;;;;28.52;12.95;;;;;;;3.23;64.51;102687.13;5259445;28;20382;-77
2022/03/20 06:52:08;;;;;;;25.33;12.13;;;;;;;3.37;64.78;102674.63;5253104;28;20439;-77
2022/03/20 06:54:38;;;;;;;27.08;11.85;;;;;;;3.44;64.55;102676.53;5261885;28;20031;-77
2022/03/20 06:57:09;;;;;;;22.38;10.70;;;;;;;3.48;64.84;102675.75;5242918;28;20030;-77
2022/03/20 06:59:39;;;;;;;25.10;12.43;;;;;;;3.48;64.67;102675.75;5256376;28;20031;-77
2022/03/20 07:02:09;;;;;;;27.20;11.15;;;;;;;3.48;65.11;102658.56;5256231;28;20015;-77
2022/03/20 07:04:41;;;;;;;27.60;12.68;;;;;;;3.66;64.56;102674.53;5254429;28;20109;-77
2022/03/20 07:07:11;;;;;;;28.23;12.95;;;;;;;3.77;64.15;102673.13;5255426;28;20458;-77
2022/03/20 07:09:42;;;;;;;29.60;12.45;;;;;;;4.04;64.03;102674.69;5258183;28;20070;-77
2022/03/20 07:12:13;;;;;;;23.70;12.10;;;;;;;4.12;64.00;102685.22;5258555;28;20028;-77
2022/03/20 07:14:44;;;;;;;28.05;12.77;;;;;;;4.23;63.68;102687.22;5256308;28;20036;-77
2022/03/20 07:17:16;;;;;;;25.17;12.77;;;;;;;4.36;63.59;102681.50;5256901;28;20024;-78
2022/03/20 07:19:47;;;;;;;28.50;12.00;;;;;;;4.52;63.37;102685.28;5256522;28;20086;-78
2022/03/20 07:22:19;;;;;;;24.35;12.07;;;;;;;4.69;63.39;102677.06;5258176;28;20039;-78
2022/03/20 07:24:49;;;;;;;25.73;12.90;;;;;;;4.95;62.94;102670.72;5260038;28;20028;-78
2022/03/20 07:30:10;;;;;;;26.40;13.30;;;;;;;7.61;60.06;102661.91;5259168;28;20036;-78
2022/03/20 07:32:41;;;;;;;26.95;12.95;;;;;;;9.27;56.17;102664.75;5265373;28;20027;-79
2022/03/20 07:35:12;;;;;;;24.65;12.43;;;;;;;10.46;53.24;102663.13;5260671;28;20036;-79
2022/03/20 07:37:42;;;;;;;26.20;12.73;;;;;;;10.57;51.43;102650.91;5260966;28;20028;-79
2022/03/20 07:40:13;;;;;;;24.70;13.30;;;;;;;10.85;51.15;102644.72;5262690;28;20589;-79
2022/03/20 07:42:43;;;;;;;23.40;13.32;;;;;;;10.90;51.94;102637.72;5260884;28;20074;-79
2022/03/20 07:45:13;;;;;;;23.00;12.45;;;;;;;10.71;52.65;102641.28;5243890;28;20035;-78
2022/03/20 07:47:44;;;;;;;23.85;12.18;;;;;;;10.67;52.77;102642.19;5256580;28;20282;-79
2022/03/20 07:50:15;;;;;;;22.88;13.05;;;;;;;10.27;51.13;102646.63;5258569;28;20281;-79
2022/03/20 07:52:45;;;;;;;24.25;13.20;;;;;;;9.18;53.37;102639.50;5257827;28;20354;-79
2022/03/20 07:55:17;;;;;;;26.52;14.00;;;;;;;10.01;54.01;102632.69;5256530;28;20025;-79
2022/03/20 07:57:47;;;;;;;24.65;13.40;;;;;;;9.59;53.15;102629.16;5258082;28;20025;-79
2022/03/20 08:00:17;;;;;;;23.90;13.35;;;;;;;10.09;51.96;102633.56;5257090;28;20115;-79
2022/03/20 08:02:48;;;;;;;22.33;13.27;;;;;;;11.06;51.57;102624.56;5257914;28;20530;-79
2022/03/20 08:05:24;;;;;;;21.52;12.85;;;;;;;11.42;50.52;102624.38;5259785;28;20036;-79
2022/03/20 08:07:56;;;;;;;26.10;13.60;;;;;;;11.17;50.74;102630.63;5254481;28;20114;-78
2022/03/20 08:10:29;;;;;;;26.17;13.00;;;;;;;9.93;52.35;102618.75;5238051;28;20025;-78
2022/03/20 08:12:59;;;;;;;23.42;13.48;;;;;;;10.24;52.24;102614.38;5232560;28;20029;-78
2022/03/20 08:15:29;;;;;;;22.25;12.60;;;;;;;10.68;52.97;102591.63;5257512;28;20024;-78
2022/03/20 08:18:00;;;;;;;22.93;12.60;;;;;;;10.09;52.83;102598.72;5255109;28;20170;-79
2022/03/20 08:20:30;;;;;;;25.55;13.27;;;;;;;10.19;51.61;102597.84;5256473;28;20274;-78
2022/03/20 08:23:00;;;;;;;24.33;12.88;;;;;;;10.21;51.71;102586.53;5254167;28;20111;-79
2022/03/20 08:25:31;;;;;;;20.70;12.20;;;;;;;9.69;52.33;102594.38;5232808;28;20268;-78
2022/03/20 08:28:02;;;;;;;25.05;13.60;;;;;;;10.55;51.97;102574.22;5253897;28;20036;-78
2022/03/20 08:30:33;;;;;;;24.38;12.50;;;;;;;10.38;52.19;102583.88;5256168;28;20033;-78
2022/03/20 08:33:03;;;;;;;22.70;11.18;;;;;;;10.38;52.06;102573.41;5254979;28;20034;-78
2022/03/20 08:35:33;;;;;;;21.60;12.38;;;;;;;9.30;53.04;102570.84;5255939;28;20024;-78
2022/03/20 08:38:04;;;;;;;24.95;12.35;;;;;;;9.53;52.67;102584.78;5256217;28;20055;-78
2022/03/20 08:40:34;;;;;;;19.30;10.88;;;;;;;9.95;52.27;102574.31;5255440;28;20107;-78
2022/03/20 08:43:04;;;;;;;20.60;11.25;;;;;;;9.73;51.78;102549.09;5253227;28;20035;-78
2022/03/20 08:45:35;;;;;;;23.95;12.35;;;;;;;9.75;52.23;102556.06;5252626;28;20040;-78
2022/03/20 08:48:05;;;;;;;23.85;12.10;;;;;;;10.26;51.67;102555.13;5281215;22;20218;-76
2022/03/20 08:50:37;;;;;;;20.30;11.57;;;;;;;10.38;51.79;102552.50;5267321;28;20459;-76
2022/03/20 08:53:07;;;;;;;24.13;12.63;;;;;;;10.60;51.26;102541.06;5275077;28;20084;-75
2022/03/20 08:55:37;;;;;;;27.05;13.23;;;;;;;10.94;52.22;102532.19;5268137;28;20298;-76
2022/03/20 08:58:08;;;;;;;22.42;11.88;;;;;;;11.47;49.51;102536.19;5274133;28;20043;-77
2022/03/20 09:00:39;;;;;;;21.65;11.68;;;;;;;11.49;50.39;102539.66;5250170;28;20032;-76
2022/03/20 09:03:10;;;;;;;19.42;11.10;;;;;;;10.95;47.68;102544.38;5263159;28;20025;-76
2022/03/20 09:05:41;;;;;;;21.48;12.27;;;;;;;11.55;48.96;102530.00;5253171;28;20024;-76
2022/03/20 09:08:11;;;;;;;20.58;11.70;;;;;;;12.18;48.39;102539.03;5257563;28;20056;-76
2022/03/20 09:10:41;;;;;;;19.77;11.23;;;;;;;12.93;46.51;102541.63;5257918;28;20032;-76
2022/03/20 09:13:12;;;;;;;21.05;12.23;;;;;;;12.11;48.70;102535.59;5257762;28;20078;-77
2022/03/20 09:15:42;;;;;;;20.52;11.73;;;;;;;11.77;47.27;102541.22;5259033;28;20025;-76
2022/03/20 09:21:18;;;;;;;20.05;11.80;;;;;;;11.27;49.63;102545.94;5180579;28;20268;-76
2022/03/20 09:23:49;;;;;;;19.17;11.63;;;;;;;11.58;50.48;102537.88;5243482;28;20055;-76
2022/03/20 09:26:19;;;;;;;20.10;10.75;;;;;;;10.85;50.54;102547.94;5265851;28;20036;-76
2022/03/20 09:28:50;;;;;;;24.10;11.07;;;;;;;10.55;52.18;102540.25;5267483;28;20028;-75
2022/03/20 09:31:21;;;;;;;20.63;11.38;;;;;;;9.90;50.04;102545.63;5258391;28;20063;-76
2022/03/20 09:33:51;;;;;;;26.13;12.27;;;;;;;10.43;51.48;102542.88;5264763;28;20302;-76
2022/03/20 09:36:22;;;;;;;21.45;11.23;;;;;;;10.43;51.38;102535.03;5262326;28;20044;-76
2022/03/20 09:38:52;;;;;;;20.10;11.93;;;;;;;10.64;51.84;102540.19;5269817;28;20064;-75
2022/03/20 09:41:31;;;;;;;22.17;10.60;;;;;;;10.06;50.79;102563.03;5271197;28;20035;-75
2022/03/20 09:44:05;;;;;;;19.55;9.32;;;;;;;9.82;50.38;102551.72;5273000;28;20026;-76
2022/03/20 09:46:36;;;;;;;22.92;12.45;;;;;;;10.09;52.00;102528.19;5266998;28;20036;-75
2022/03/20 09:49:07;;;;;;;20.10;10.80;;;;;;;10.14;53.30;102521.22;5270307;28;20201;-76
2022/03/20 09:51:39;;;;;;;23.25;11.68;;;;;;;10.40;51.59;102517.66;5271530;28;20561;-76
2022/03/20 09:54:13;;;;;;;21.25;11.68;;;;;;;10.36;51.30;102520.28;5268072;28;20111;-76
2022/03/20 09:56:43;;;;;;;20.60;11.07;;;;;;;10.51;51.76;102525.44;5261089;28;20028;-76
2022/03/20 09:59:14;;;;;;;19.55;10.73;;;;;;;10.25;50.69;102517.69;5264995;28;20055;-76
2022/03/20 10:01:44;;;;;;;18.83;9.82;;;;;;;10.21;51.22;102509.88;5271800;28;20042;-75
2022/03/20 10:04:15;;;;;;;21.73;10.55;;;;;;;10.42;50.81;102504.56;5262911;28;20385;-75
2022/03/20 10:06:45;;;;;;;20.40;11.13;;;;;;;10.73;51.94;102507.03;5267595;28;20035;-76
2022/03/20 10:09:16;;;;;;;18.75;9.77;;;;;;;10.59;50.72;102497.50;5272317;28;20028;-76
2022/03/20 10:11:49;;;;;;;23.73;10.45;;;;;;;10.43;50.37;102506.28;5262808;28;20020;-76
2022/03/20 10:14:22;;;;;;;17.27;9.57;;;;;;;10.08;49.52;102514.28;5261284;28;20259;-75
2022/03/20 10:17:11;;;;;;;17.55;9.93;;;;;;;10.38;51.11;102515.91;5266811;28;20050;-76
2022/03/20 10:19:42;;;;;;;22.05;9.75;;;;;;;10.68;51.17;102494.84;5265657;28;20092;-76
2022/03/20 10:22:17;;;;;;;18.35;9.65;;;;;;;10.47;49.92;102506.28;5269748;28;20465;-76
2022/03/20 10:24:50;;;;;;;17.88;9.88;;;;;;;10.18;49.75;102496.81;5272142;28;20031;-76
2022/03/20 10:27:21;;;;;;;21.75;9.93;;;;;;;10.35;50.99;102500.25;5269681;28;20039;-76
2022/03/20 10:29:54;;;;;;;19.08;10.23;;;;;;;10.50;51.26;102500.19;5265554;28;20373;-76
2022/03/20 10:32:24;;;;;;;20.75;10.10;;;;;;;10.55;50.39;102496.63;5264922;28;20028;-76
2022/03/20 10:34:59;;;;;;;19.63;9.93;;;;;;;10.43;51.22;102480.16;5259178;28;20039;-77
2022/03/20 10:37:45;;;;;;;20.83;10.00;;;;;;;10.39;51.42;102500.22;5270862;28;20426;-75
2022/03/20 10:40:27;;;;;;;16.75;9.75;;;;;;;10.58;50.83;102488.81;5267283;28;20038;-76
2022/03/20 10:43:12;;;;;;;18.90;9.57;;;;;;;10.62;49.76;102472.22;5266359;28;20092;-76
2022/03/20 10:46:02;;;;;;;21.00;9.52;;;;;;;10.82;51.70;102470.34;5266791;28;20135;-77
2022/03/20 10:48:39;;;;;;;19.30;9.82;;;;;;;10.52;50.28;102453.97;5265855;28;20044;-77
2022/03/20 10:51:09;;;;;;;18.17;9.85;;;;;;;10.83;51.06;102493.00;5272768;28;20024;-77
2022/03/20 10:53:59;;;;;;;16.67;9.05;;;;;;;10.85;51.23;102457.25;5276308;28;20027;-77
2022/03/20 10:56:30;;;;;;;15.90;8.52;;;;;;;10.95;49.44;102460.66;5277153;28;20042;-76
2022/03/20 10:59:21;;;;;;;17.17;9.18;;;;;;;11.17;48.84;102437.81;5273123;28;20027;-77
2022/03/20 11:01:51;;;;;;;13.65;8.40;;;;;;;11.37;48.58;102459.47;5274184;28;20086;-77
2022/03/20 11:04:23;;;;;;;15.88;8.18;;;;;;;11.52;47.24;102456.72;5267290;28;20112;-78
2022/03/20 11:06:54;;;;;;;15.95;8.70;;;;;;;11.65;47.87;102429.53;5274194;28;20035;-78
2022/03/20 11:09:26;;;;;;;15.50;8.60;;;;;;;11.46;48.87;102459.38;5275656;28;20485;-77
2022/03/20 11:11:59;;;;;;;14.68;7.97;;;;;;;11.01;45.64;102447.56;5274371;28;20487;-77
2022/03/20 11:14:32;;;;;;;15.00;7.95;;;;;;;11.04;47.33;102451.88;5257625;28;20030;-77
2022/03/20 11:17:06;;;;;;;12.93;7.22;;;;;;;11.23;48.13;102455.19;5266738;28;20056;-77
2022/03/20 11:19:43;;;;;;;13.00;7.30;;;;;;;11.18;46.47;102446.53;5267348;28;20119;-77
2022/03/20 11:22:18;;;;;;;15.90;7.32;;;;;;;11.32;46.62;102434.19;5278904;28;20389;-78
2022/03/20 11:24:50;;;;;;;;;;;;;;;11.33;46.99;102433.31;5276646;28;20127;-77
2022/03/20 11:27:27;;;;;;;19.98;8.45;;;;;;;11.42;47.44;102421.00;5260803;28;19915;-77
2022/03/20 11:30:05;;;;;;;13.80;8.10;;;;;;;11.22;46.75;102427.28;5281341;28;20475;-77
2022/03/20 11:32:36;;;;;;;15.60;7.75;;;;;;;11.23;47.69;102422.06;5271193;28;20028;-77
2022/03/20 11:35:07;;;;;;;16.58;8.23;;;;;;;11.42;49.60;102423.63;5258101;28;20277;-77
2022/03/20 11:37:47;;;;;;;16.33;8.18;;;;;;;11.53;48.38;102411.31;5279995;28;20032;-77
2022/03/20 11:40:21;;;;;;;16.83;8.20;;;;;;;11.49;48.02;102399.13;5279064;28;20086;-77
2022/03/20 11:43:16;;;;;;;14.82;8.30;;;;;;;11.55;48.57;102399.06;5281286;28;20036;-77
2022/03/20 11:46:32;;;;;;;13.63;7.40;;;;;;;11.25;47.14;102415.06;5277306;28;20048;-78
2022/03/20 11:49:19;;;;;;;12.98;7.50;;;;;;;11.55;48.57;102388.59;5273280;28;20485;-77
2022/03/20 11:51:50;;;;;;;13.93;7.53;;;;;;;11.66;48.33;102402.47;5279535;28;20070;-77
2022/03/20 11:54:20;;;;;;;11.53;7.23;;;;;;;11.27;47.58;102396.75;5279076;28;20052;-77
2022/03/20 11:56:52;;;;;;;14.40;6.53;;;;;;;11.32;47.11;102387.09;5278686;28;20308;-77
2022/03/20 11:59:48;;;;;;;13.75;7.43;;;;;;;11.43;48.00;102393.94;5280971;28;20087;-77
2022/03/20 12:02:19;;;;;;;11.82;6.38;;;;;;;11.50;47.44;102406.09;5275707;28;20374;-77
2022/03/20 12:05:09;;;;;;;19.00;8.50;;;;;;;11.56;46.89;102379.88;5277907;28;20041;-77
2022/03/20 12:08:18;;;;;;;15.45;8.32;;;;;;;11.66;47.88;102376.28;5280343;28;20636;-78
2022/03/20 12:11:37;;;;;;;13.07;7.13;;;;;;;11.69;47.40;102389.34;5280037;28;20032;-77
2022/03/20 12:14:15;;;;;;;12.80;7.68;;;;;;;11.88;48.65;102382.13;5261004;28;20048;-77